createdAt,value
2023-02-11T00:01:11.790Z,47.88
2023-02-11T00:03:38.966Z,48.53
2023-02-11T00:06:11.247Z,63.95
2023-02-11T00:08:40.815Z,71.60
2023-02-11T00:11:07.837Z,43.95
2023-02-11T00:13:36.887Z,46.13
2023-02-11T00:16:10.835Z,53.47
2023-02-11T00:18:37.742Z,57.08
2023-02-11T00:21:08.533Z,50.95
2023-02-11T00:23:35.526Z,107.07
2023-02-11T00:26:02.298Z,76.95
2023-02-11T00:28:29.043Z,187.98
2023-02-11T00:30:59.288Z,36.53
2023-02-11T00:33:26.021Z,41.85
2023-02-11T00:35:52.913Z,79.72
2023-02-11T00:38:20.371Z,53.33
2023-02-11T00:40:47.027Z,49.90
2023-02-11T00:43:13.682Z,68.43
2023-02-11T00:45:40.433Z,54.80
2023-02-11T00:48:07.086Z,64.63
2023-02-11T00:50:35.318Z,87.10
2023-02-11T00:53:02.119Z,52.97
2023-02-11T00:55:30.928Z,84.95
2023-02-11T00:57:58.948Z,64.38
2023-02-11T01:00:26.341Z,37.35
2023-02-11T01:02:53.462Z,34.45
2023-02-11T01:05:20.881Z,48.42
2023-02-11T01:07:47.846Z,56.95
2023-02-11T01:10:14.828Z,73.10
2023-02-11T01:12:41.545Z,60.50
2023-02-11T01:15:10.046Z,53.70
2023-02-11T01:17:36.717Z,78.07
2023-02-11T01:20:09.295Z,80.13
2023-02-11T01:22:39.540Z,53.60
2023-02-11T01:25:07.703Z,76.72
2023-02-11T01:27:34.572Z,69.93
2023-02-11T01:30:01.426Z,74.40
2023-02-11T01:32:28.173Z,50.55
2023-02-11T01:34:54.906Z,79.82
2023-02-11T01:37:21.593Z,52.15
2023-02-11T01:39:48.275Z,60.63
2023-02-11T01:42:23.639Z,62.40
2023-02-11T01:44:52.258Z,59.85
2023-02-11T01:47:19.519Z,64.38
2023-02-11T01:49:49.514Z,42.17
2023-02-11T01:52:29.008Z,62.03
2023-02-11T01:55:30.375Z,50.20
2023-02-11T01:58:05.095Z,62.45
2023-02-11T02:00:36.875Z,67.05
2023-02-11T02:03:22.664Z,79.30
2023-02-11T02:06:07.615Z,32.70
2023-02-11T02:08:55.955Z,60.47
2023-02-11T02:11:25.677Z,81.10
2023-02-11T02:13:52.586Z,60.20
2023-02-11T02:16:22.079Z,79.03
2023-02-11T02:19:08.064Z,64.53
2023-02-11T02:21:56.648Z,52.53
2023-02-11T02:24:56.685Z,58.00
2023-02-11T02:27:38.641Z,45.80
2023-02-11T02:30:17.584Z,29.20
2023-02-11T02:33:22.409Z,64.75
2023-02-11T02:38:46.118Z,56.38
2023-02-11T02:41:19.268Z,58.28
2023-02-11T02:43:49.707Z,53.15
2023-02-11T02:46:25.461Z,54.83
2023-02-11T02:48:53.919Z,61.10
2023-02-11T02:51:26.266Z,30.20
2023-02-11T02:54:30.844Z,72.28
2023-02-11T02:57:38.391Z,40.60
2023-02-11T03:00:25.357Z,43.92
2023-02-11T03:03:20.430Z,52.63
2023-02-11T03:06:11.570Z,20.65
2023-02-11T03:08:50.890Z,56.28
2023-02-11T03:11:22.230Z,56.35
2023-02-11T03:13:51.060Z,32.60
2023-02-11T03:16:23.329Z,69.05
2023-02-11T03:18:57.271Z,64.95
2023-02-11T03:21:25.539Z,44.38
2023-02-11T03:24:00.541Z,50.30
2023-02-11T03:26:37.626Z,54.25
2023-02-11T03:29:17.060Z,58.22
2023-02-11T03:32:01.512Z,30.05
2023-02-11T03:34:35.557Z,60.38
2023-02-11T03:37:09.765Z,36.10
2023-02-11T03:42:07.581Z,63.90
2023-02-11T03:44:42.174Z,43.28
2023-02-11T03:47:12.571Z,38.00
2023-02-11T03:49:42.997Z,52.88
2023-02-11T03:52:12.431Z,29.83
2023-02-11T03:54:42.657Z,70.82
2023-02-11T03:57:09.572Z,34.60
2023-02-11T03:59:57.144Z,52.47
2023-02-11T04:02:27.814Z,20.30
2023-02-11T04:04:54.651Z,34.08
2023-02-11T04:07:21.349Z,34.45
2023-02-11T04:09:47.996Z,45.05
2023-02-11T04:12:14.652Z,34.90
2023-02-11T04:14:41.298Z,52.40
2023-02-11T04:17:07.996Z,46.22
2023-02-11T04:19:34.921Z,68.68
2023-02-11T04:22:04.477Z,47.78
2023-02-11T04:24:31.334Z,43.55
2023-02-11T04:26:58.233Z,49.67
2023-02-11T04:29:24.886Z,117.80
2023-02-11T04:31:51.751Z,75.90
2023-02-11T04:34:18.429Z,41.70
2023-02-11T04:36:45.076Z,71.90
2023-02-11T04:39:11.853Z,56.15
2023-02-11T04:41:38.558Z,65.97
2023-02-11T04:44:05.673Z,58.35
2023-02-11T04:46:32.414Z,56.58
2023-02-11T04:48:59.110Z,51.97
2023-02-11T04:51:25.966Z,39.58
2023-02-11T04:53:52.601Z,55.20
2023-02-11T04:56:19.365Z,59.83
2023-02-11T04:58:46.032Z,25.52
2023-02-11T05:01:15.273Z,39.60
2023-02-11T05:03:42.084Z,52.13
2023-02-11T05:06:10.494Z,48.03
2023-02-11T05:08:37.167Z,47.65
2023-02-11T05:11:04.284Z,42.55
2023-02-11T05:13:33.600Z,34.88
2023-02-11T05:16:00.228Z,37.50
2023-02-11T05:18:26.839Z,35.85
2023-02-11T05:20:56.422Z,56.38
2023-02-11T05:23:23.184Z,58.70
2023-02-11T05:25:50.093Z,55.00
2023-02-11T05:28:17.006Z,60.17
2023-02-11T05:30:43.736Z,49.55
2023-02-11T05:33:10.413Z,27.30
2023-02-11T05:35:37.063Z,28.77
2023-02-11T05:38:03.715Z,62.53
2023-02-11T05:40:30.324Z,42.97
2023-02-11T05:42:57.091Z,38.90
2023-02-11T05:45:26.441Z,52.97
2023-02-11T05:47:53.145Z,40.55
2023-02-11T05:50:20.372Z,11.43
2023-02-11T05:52:47.069Z,43.22
2023-02-11T05:55:13.701Z,55.40
2023-02-11T05:57:40.376Z,25.92
2023-02-11T06:00:08.349Z,38.65
2023-02-11T06:02:35.110Z,44.97
2023-02-11T06:05:01.821Z,35.45
2023-02-11T06:07:28.443Z,47.47
2023-02-11T06:09:54.971Z,68.28
2023-02-11T06:12:22.765Z,62.72
2023-02-11T06:14:49.348Z,64.07
2023-02-11T06:17:15.998Z,61.45
2023-02-11T06:19:42.844Z,47.35
2023-02-11T06:22:09.754Z,43.53
2023-02-11T06:24:58.498Z,48.92
2023-02-11T06:27:24.435Z,52.30
2023-02-11T06:29:52.519Z,81.20
2023-02-11T06:32:39.306Z,93.53
2023-02-11T06:35:11.779Z,42.85
2023-02-11T06:37:38.986Z,82.88
2023-02-11T06:40:06.035Z,77.05
2023-02-11T06:42:32.735Z,111.95
2023-02-11T06:44:59.423Z,28.10
2023-02-11T06:47:26.103Z,30.73
2023-02-11T06:49:52.725Z,31.23
2023-02-11T06:52:19.372Z,41.92
2023-02-11T06:54:46.194Z,30.13
2023-02-11T06:57:12.898Z,49.30
2023-02-11T06:59:39.570Z,42.55
2023-02-11T07:02:06.243Z,48.28
2023-02-11T07:04:32.957Z,61.08
2023-02-11T07:06:59.674Z,234.63
2023-02-11T07:09:29.049Z,140.75
2023-02-11T07:11:55.832Z,48.83
2023-02-11T07:14:22.468Z,75.93
2023-02-11T07:16:49.161Z,48.92
2023-02-11T07:19:17.835Z,75.45
2023-02-11T07:21:44.477Z,38.30
2023-02-11T07:24:11.567Z,72.07
2023-02-11T07:26:38.514Z,114.47
2023-02-11T07:29:05.364Z,65.25
2023-02-11T07:31:33.178Z,51.50
2023-02-11T07:34:02.570Z,78.47
2023-02-11T07:36:31.872Z,84.30
2023-02-11T07:38:59.106Z,71.90
2023-02-11T07:41:27.089Z,56.63
2023-02-11T07:43:54.462Z,61.72
2023-02-11T07:46:24.216Z,66.45
2023-02-11T07:48:51.381Z,85.75
2023-02-11T07:51:27.100Z,70.95
2023-02-11T07:53:58.076Z,46.25
2023-02-11T07:56:25.031Z,83.97
2023-02-11T07:58:52.257Z,83.22
2023-02-11T08:01:24.946Z,52.88
2023-02-11T08:03:52.478Z,65.13
2023-02-11T08:06:21.772Z,44.17
2023-02-11T08:08:49.470Z,56.35
2023-02-11T08:11:22.368Z,49.15
2023-02-11T08:13:49.497Z,65.13
2023-02-11T08:16:31.695Z,66.95
2023-02-11T08:19:01.900Z,49.42
2023-02-11T08:21:29.188Z,60.65
2023-02-11T08:23:56.589Z,52.47
2023-02-11T08:26:29.160Z,66.80
2023-02-11T08:28:57.136Z,54.08
2023-02-11T08:31:34.295Z,75.88
2023-02-11T08:34:02.504Z,57.40
2023-02-11T08:36:31.547Z,45.03
2023-02-11T08:39:15.906Z,43.22
2023-02-11T08:41:46.402Z,51.67
2023-02-11T08:44:13.466Z,47.92
2023-02-11T08:46:40.128Z,55.67
2023-02-11T08:49:06.933Z,38.70
2023-02-11T08:51:33.705Z,40.35
2023-02-11T08:54:01.137Z,69.55
2023-02-11T08:56:28.391Z,73.97
2023-02-11T08:58:55.390Z,71.88
2023-02-11T09:01:28.765Z,62.40
2023-02-11T09:03:56.886Z,69.27
2023-02-11T09:06:25.092Z,132.93
2023-02-11T09:08:55.241Z,121.68
2023-02-11T09:11:27.494Z,126.28
2023-02-11T09:13:54.700Z,116.13
2023-02-11T09:16:30.255Z,85.43
2023-02-11T09:18:59.024Z,89.80
2023-02-11T09:21:26.283Z,60.60
2023-02-11T09:23:53.235Z,66.57
2023-02-11T09:26:23.019Z,48.60
2023-02-11T09:28:51.328Z,96.75
2023-02-11T09:31:20.607Z,88.20
2023-02-11T09:33:49.271Z,67.90
2023-02-11T09:36:21.012Z,71.38
2023-02-11T09:38:48.716Z,63.83
2023-02-11T09:41:24.624Z,135.07
2023-02-11T09:43:54.754Z,77.60
2023-02-11T09:46:23.526Z,100.97
2023-02-11T09:48:56.104Z,82.97
2023-02-11T09:51:31.812Z,72.05
2023-02-11T09:54:05.639Z,52.80
2023-02-11T09:56:32.563Z,94.43
2023-02-11T09:58:59.677Z,94.07
2023-02-11T10:01:47.701Z,57.22
2023-02-11T10:04:33.611Z,99.45
2023-02-11T10:07:18.469Z,85.13
2023-02-11T10:12:45.816Z,88.75
2023-02-11T10:15:15.536Z,98.20
2023-02-11T10:18:10.172Z,123.53
2023-02-11T10:20:48.140Z,100.75
2023-02-11T10:23:30.305Z,52.72
2023-02-11T10:25:59.061Z,52.17
2023-02-11T10:28:33.389Z,53.15
2023-02-11T10:31:03.175Z,78.03
2023-02-11T10:34:15.172Z,68.90
2023-02-11T10:36:44.330Z,61.03
2023-02-11T10:39:16.625Z,88.18
2023-02-11T10:41:50.758Z,82.10
2023-02-11T10:44:23.321Z,91.93
2023-02-11T10:46:51.268Z,53.67
2023-02-11T10:49:39.738Z,102.82
2023-02-11T10:52:22.541Z,97.90
2023-02-11T10:54:56.389Z,82.82
2023-02-11T10:57:26.296Z,104.38
2023-02-11T10:59:58.413Z,88.20
2023-02-11T11:02:34.730Z,74.60
2023-02-11T11:05:07.328Z,104.57
2023-02-11T11:07:34.874Z,97.60
2023-02-11T11:10:31.886Z,129.35
2023-02-11T11:12:58.633Z,83.47
2023-02-11T11:15:30.107Z,192.27
2023-02-11T11:18:23.007Z,108.18
2023-02-11T11:21:21.721Z,110.03
2023-02-11T11:23:52.801Z,83.47
2023-02-11T11:26:19.982Z,63.88
2023-02-11T11:28:49.313Z,105.88
2023-02-11T11:31:24.658Z,202.85
2023-02-11T11:33:55.127Z,100.68
2023-02-11T11:36:30.583Z,128.05
2023-02-11T11:39:01.532Z,116.88
2023-02-11T11:41:36.084Z,166.52
2023-02-11T11:46:33.151Z,116.28
2023-02-11T11:49:31.127Z,114.35
2023-02-11T11:52:14.122Z,76.45
2023-02-11T11:54:47.844Z,89.60
2023-02-11T11:57:22.304Z,96.45
2023-02-11T12:02:35.281Z,91.47
2023-02-11T12:05:17.874Z,99.28
2023-02-11T12:08:25.822Z,85.70
2023-02-11T12:10:58.407Z,90.50
2023-02-11T12:13:48.904Z,132.55
2023-02-11T12:16:45.935Z,104.90
2023-02-11T12:19:46.540Z,90.82
2023-02-11T12:22:26.873Z,114.22
2023-02-11T12:25:38.693Z,147.38
2023-02-11T12:28:29.870Z,116.38
2023-02-11T12:31:03.185Z,92.97
2023-02-11T12:33:51.599Z,79.30
2023-02-11T12:36:28.215Z,78.18
2023-02-11T12:39:15.344Z,74.13
2023-02-11T12:42:00.496Z,75.95
2023-02-11T12:44:31.376Z,115.25
2023-02-11T12:47:33.231Z,50.97
2023-02-11T12:50:13.752Z,71.30
2023-02-11T12:53:10.390Z,69.55
2023-02-11T12:55:47.079Z,69.80
2023-02-11T12:58:25.367Z,48.33
2023-02-11T13:01:06.323Z,87.97
2023-02-11T13:03:46.424Z,88.53
2023-02-11T13:06:18.741Z,47.42
2023-02-11T13:08:54.314Z,39.55
2023-02-11T13:11:24.780Z,31.88
2023-02-11T13:13:51.385Z,59.75
2023-02-11T13:16:42.363Z,46.83
2023-02-11T13:19:47.399Z,36.72
2023-02-11T13:22:17.120Z,35.45
2023-02-11T13:24:48.093Z,45.00
2023-02-11T13:27:33.004Z,43.63
2023-02-11T13:30:23.392Z,31.83
2023-02-11T13:32:55.988Z,26.73
2023-02-11T13:35:39.264Z,41.53
2023-02-11T13:38:19.376Z,31.30
2023-02-11T13:41:06.281Z,74.65
2023-02-11T13:43:36.423Z,35.90
2023-02-11T13:46:06.361Z,41.05
2023-02-11T13:48:37.326Z,56.33
2023-02-11T13:51:13.715Z,41.03
2023-02-11T13:53:49.319Z,60.15
2023-02-11T13:56:44.214Z,36.60
2023-02-11T13:59:26.744Z,55.80
2023-02-11T14:02:11.940Z,68.18
2023-02-11T14:05:23.049Z,43.97
2023-02-11T14:08:29.379Z,93.00
2023-02-11T14:10:59.009Z,77.60
2023-02-11T14:13:32.893Z,38.63
2023-02-11T14:16:37.947Z,61.45
2023-02-11T14:19:06.462Z,55.65
2023-02-11T14:21:38.939Z,36.20
2023-02-11T14:24:07.132Z,41.90
2023-02-11T14:27:01.693Z,32.28
2023-02-11T14:29:46.026Z,27.83
2023-02-11T14:32:38.102Z,34.22
2023-02-11T14:35:29.126Z,38.20
2023-02-11T14:38:31.676Z,62.50
2023-02-11T14:41:16.388Z,31.52
2023-02-11T14:43:52.913Z,66.72
2023-02-11T14:46:21.187Z,34.53
2023-02-11T14:48:50.595Z,34.25
2023-02-11T14:51:26.643Z,40.75
2023-02-11T14:53:59.321Z,36.90
2023-02-11T14:56:34.487Z,33.75
2023-02-11T14:59:02.767Z,46.70
2023-02-11T15:01:41.536Z,34.92
2023-02-11T15:04:22.676Z,60.42
2023-02-11T15:06:49.818Z,53.42
2023-02-11T15:09:20.719Z,37.47
2023-02-11T15:11:49.816Z,81.13
2023-02-11T15:14:29.828Z,92.22
2023-02-11T15:17:08.912Z,55.25
2023-02-11T15:19:41.320Z,46.67
2023-02-11T15:22:22.151Z,61.13
2023-02-11T15:25:19.964Z,46.08
2023-02-11T15:27:48.179Z,50.38
2023-02-11T15:30:24.390Z,40.60
2023-02-11T15:32:58.037Z,77.47
2023-02-11T15:35:37.216Z,60.63
2023-02-11T15:38:05.105Z,74.43
2023-02-11T15:40:37.145Z,71.13
2023-02-11T15:43:07.112Z,56.30
2023-02-11T15:45:38.891Z,61.67
2023-02-11T15:48:18.685Z,58.70
2023-02-11T15:50:52.178Z,53.75
2023-02-11T15:53:27.712Z,70.55
2023-02-11T15:56:04.086Z,48.70
2023-02-11T15:58:37.442Z,61.28
2023-02-11T16:01:04.667Z,80.93
2023-02-11T16:03:33.093Z,64.68
2023-02-11T16:06:39.038Z,53.83
2023-02-11T16:09:08.502Z,69.97
2023-02-11T16:11:56.741Z,79.68
2023-02-11T16:14:42.249Z,76.95
2023-02-11T16:17:12.257Z,62.35
2023-02-11T16:19:48.533Z,57.45
2023-02-11T16:22:22.977Z,56.28
2023-02-11T16:27:38.103Z,45.03
2023-02-11T16:30:05.760Z,81.97
2023-02-11T16:32:32.441Z,55.20
2023-02-11T16:35:00.934Z,53.05
2023-02-11T16:37:28.316Z,44.88
2023-02-11T16:39:56.276Z,49.47
2023-02-11T16:42:23.721Z,49.90
2023-02-11T16:44:50.328Z,69.32
2023-02-11T16:47:23.010Z,49.55
2023-02-11T16:49:49.962Z,44.13
2023-02-11T16:52:18.375Z,60.65
2023-02-11T16:54:45.060Z,43.40
2023-02-11T16:57:16.807Z,41.92
2023-02-11T16:59:44.333Z,67.68
2023-02-11T17:02:28.067Z,45.70
2023-02-11T17:04:56.377Z,55.22
2023-02-11T17:07:22.985Z,52.63
2023-02-11T17:09:49.779Z,54.13
2023-02-11T17:12:16.398Z,48.30
2023-02-11T17:14:42.968Z,44.83
2023-02-11T17:17:10.873Z,49.85
2023-02-11T17:19:38.507Z,86.72
2023-02-11T17:22:05.211Z,52.85
2023-02-11T17:24:32.064Z,42.25
2023-02-11T17:26:58.803Z,72.53
2023-02-11T17:29:26.273Z,58.03
2023-02-11T17:31:53.744Z,50.22
2023-02-11T17:34:22.457Z,41.97
2023-02-11T17:36:49.465Z,45.50
2023-02-11T17:39:16.778Z,40.15
2023-02-11T17:41:43.605Z,67.22
2023-02-11T17:44:12.596Z,57.55
2023-02-11T17:46:39.387Z,113.93
2023-02-11T17:49:06.155Z,56.22
2023-02-11T17:51:37.975Z,39.17
2023-02-11T17:54:17.364Z,39.42
2023-02-11T17:56:45.188Z,46.08
2023-02-11T17:59:13.316Z,63.45
2023-02-11T18:01:42.264Z,60.78
2023-02-11T18:04:13.597Z,74.30
2023-02-11T18:06:40.674Z,62.25
2023-02-11T18:09:07.350Z,59.58
2023-02-11T18:11:36.291Z,71.45
2023-02-11T18:14:04.622Z,70.25
2023-02-11T18:16:31.609Z,60.65
2023-02-11T18:18:58.634Z,51.88
2023-02-11T18:21:25.691Z,56.90
2023-02-11T18:23:52.653Z,92.15
2023-02-11T18:26:20.811Z,60.75
2023-02-11T18:28:47.698Z,45.20
2023-02-11T18:31:14.730Z,43.40
2023-02-11T18:33:42.965Z,38.40
2023-02-11T18:36:12.712Z,61.45
2023-02-11T18:38:39.931Z,41.55
2023-02-11T18:41:10.192Z,49.40
2023-02-11T18:43:37.000Z,114.03
2023-02-11T18:46:09.117Z,107.03
2023-02-11T18:48:36.181Z,46.97
2023-02-11T18:51:02.960Z,42.03
2023-02-11T18:53:29.724Z,36.17
2023-02-11T18:55:56.330Z,39.05
2023-02-11T18:58:23.070Z,50.85
2023-02-11T19:00:50.587Z,44.60
2023-02-11T19:03:17.506Z,51.80
2023-02-11T19:05:46.406Z,60.38
2023-02-11T19:08:13.978Z,63.95
2023-02-11T19:10:47.402Z,50.35
2023-02-11T19:13:14.390Z,78.22
2023-02-11T19:15:45.707Z,43.22
2023-02-11T19:18:16.490Z,42.58
2023-02-11T19:20:44.311Z,45.63
2023-02-11T19:23:11.424Z,69.45
2023-02-11T19:25:44.469Z,44.72
2023-02-11T19:28:11.264Z,49.22
2023-02-11T19:30:38.046Z,50.22
2023-02-11T19:33:04.947Z,126.20
2023-02-11T19:35:35.589Z,60.92
2023-02-11T19:38:04.584Z,44.33
2023-02-11T19:40:32.384Z,52.00
2023-02-11T19:42:59.236Z,55.50
2023-02-11T19:45:27.068Z,48.95
2023-02-11T19:47:56.939Z,74.25
2023-02-11T19:50:24.414Z,51.47
2023-02-11T19:52:51.260Z,50.28
2023-02-11T19:55:18.118Z,40.95
2023-02-11T19:57:44.945Z,40.40
2023-02-11T20:00:12.147Z,50.20
2023-02-11T20:02:40.141Z,56.40
2023-02-11T20:05:07.311Z,49.97
2023-02-11T20:07:33.965Z,47.58
2023-02-11T20:10:00.823Z,44.90
2023-02-11T20:12:27.536Z,50.10
2023-02-11T20:14:54.096Z,42.60
2023-02-11T20:17:20.733Z,49.15
2023-02-11T20:19:47.361Z,45.35
2023-02-11T20:22:14.026Z,45.78
2023-02-11T20:24:40.801Z,48.08
2023-02-11T20:27:11.606Z,55.67
2023-02-11T20:29:39.124Z,67.32
2023-02-11T20:32:06.633Z,69.22
2023-02-11T20:34:33.891Z,87.18
2023-02-11T20:37:00.665Z,76.57
2023-02-11T20:39:27.391Z,75.22
2023-02-11T20:41:54.876Z,85.70
2023-02-11T20:44:22.399Z,92.05
2023-02-11T20:46:51.157Z,113.88
2023-02-11T20:49:21.734Z,95.63
2023-02-11T20:51:49.283Z,105.15
2023-02-11T20:54:18.908Z,104.05
2023-02-11T20:56:51.230Z,101.00
2023-02-11T20:59:19.012Z,112.60
2023-02-11T21:01:53.420Z,116.43
2023-02-11T21:04:23.983Z,119.40
2023-02-11T21:06:53.824Z,110.35
2023-02-11T21:09:23.713Z,103.97
2023-02-11T21:11:51.785Z,106.97
2023-02-11T21:14:19.911Z,94.78
2023-02-11T21:16:48.232Z,95.93
2023-02-11T21:19:15.960Z,109.65
2023-02-11T21:21:42.891Z,120.50
2023-02-11T21:24:10.459Z,88.55
2023-02-11T21:26:37.562Z,109.05
2023-02-11T21:29:05.549Z,120.25
2023-02-11T21:31:34.084Z,108.50
2023-02-11T21:34:01.320Z,111.15
2023-02-11T21:36:29.592Z,101.80
2023-02-11T21:38:56.572Z,105.95
2023-02-11T21:41:24.788Z,108.38
2023-02-11T21:43:52.161Z,108.72
2023-02-11T21:46:19.975Z,104.65
2023-02-11T21:48:47.403Z,123.00
2023-02-11T21:51:17.829Z,112.07
2023-02-11T21:53:44.838Z,98.68
2023-02-11T21:56:17.080Z,88.18
2023-02-11T21:58:45.127Z,87.43
2023-02-11T22:01:18.428Z,92.75
2023-02-11T22:03:46.487Z,84.35
2023-02-11T22:06:16.680Z,93.55
2023-02-11T22:08:43.775Z,94.32
2023-02-11T22:11:12.893Z,93.82
2023-02-11T22:13:40.397Z,93.22
2023-02-11T22:16:10.813Z,96.93
2023-02-11T22:18:38.251Z,100.38
2023-02-11T22:21:07.801Z,96.07
2023-02-11T22:23:35.457Z,98.68
2023-02-11T22:26:10.966Z,94.10
2023-02-11T22:28:40.558Z,94.68
2023-02-11T22:31:11.663Z,104.68
2023-02-11T22:33:38.286Z,102.78
2023-02-11T22:36:08.599Z,103.05
2023-02-11T22:38:35.479Z,104.65
2023-02-11T22:41:07.235Z,100.57
2023-02-11T22:43:34.051Z,103.90
2023-02-11T22:46:02.031Z,113.03
2023-02-11T22:48:29.182Z,105.25
2023-02-11T22:50:58.521Z,108.30
2023-02-11T22:53:25.612Z,108.47
2023-02-11T22:55:52.782Z,113.63
2023-02-11T22:58:19.558Z,112.68
2023-02-11T23:00:46.234Z,114.47
2023-02-11T23:03:13.452Z,108.45
2023-02-11T23:05:41.840Z,102.70
2023-02-11T23:08:10.614Z,102.05
2023-02-11T23:10:38.884Z,105.25
2023-02-11T23:13:06.744Z,94.00
2023-02-11T23:15:33.663Z,99.18
2023-02-11T23:18:00.284Z,96.90
2023-02-11T23:20:26.916Z,101.05
2023-02-11T23:22:53.592Z,103.13
2023-02-11T23:25:20.203Z,101.10
2023-02-11T23:27:46.944Z,101.97
2023-02-11T23:30:14.028Z,105.47
2023-02-11T23:32:40.984Z,109.90
2023-02-11T23:35:07.856Z,120.03
2023-02-11T23:37:36.853Z,113.20
2023-02-11T23:40:03.640Z,111.43
2023-02-11T23:42:30.286Z,113.13
2023-02-11T23:44:56.920Z,110.57
2023-02-11T23:47:23.469Z,107.25
2023-02-11T23:49:50.103Z,114.05
2023-02-11T23:52:16.799Z,115.20
2023-02-11T23:54:44.097Z,122.57
2023-02-11T23:57:10.713Z,106.45
2023-02-11T23:59:37.380Z,111.82
